sensor_id;sensor_type;location;lat;lon;timestamp;temperature;humidity
14049;DHT22;7099;53.922;10.728;2022-07-18T00:03:21;17.30;99.90
14049;DHT22;7099;53.922;10.728;2022-07-18T00:07:46;17.30;99.90
14049;DHT22;7099;53.922;10.728;2022-07-18T00:12:12;17.20;99.90
14049;DHT22;7099;53.922;10.728;2022-07-18T00:16:37;17.20;99.90
14049;DHT22;7099;53.922;10.728;2022-07-18T00:21:03;17.10;99.90
14049;DHT22;7099;53.922;10.728;2022-07-18T00:25:28;17.10;99.90
14049;DHT22;7099;53.922;10.728;2022-07-18T00:29:53;17.00;99.90
14049;DHT22;7099;53.922;10.728;2022-07-18T00:34:19;16.90;99.90
14049;DHT22;7099;53.922;10.728;2022-07-18T00:38:44;16.90;99.90
14049;DHT22;7099;53.922;10.728;2022-07-18T00:43:13;16.80;99.90
14049;DHT22;7099;53.922;10.728;2022-07-18T00:47:39;16.80;99.90
14049;DHT22;7099;53.922;10.728;2022-07-18T00:52:04;16.70;99.90
14049;DHT22;7099;53.922;10.728;2022-07-18T00:56:30;16.60;99.90
14049;DHT22;7099;53.922;10.728;2022-07-18T01:00:56;16.60;99.90
14049;DHT22;7099;53.922;10.728;2022-07-18T01:05:40;16.50;99.90
14049;DHT22;7099;53.922;10.728;2022-07-18T01:10:06;16.50;99.90
14049;DHT22;7099;53.922;10.728;2022-07-18T01:14:32;16.40;99.90
14049;DHT22;7099;53.922;10.728;2022-07-18T01:18:58;16.30;99.90
14049;DHT22;7099;53.922;10.728;2022-07-18T01:23:23;16.30;99.90
14049;DHT22;7099;53.922;10.728;2022-07-18T01:27:48;16.20;99.90
14049;DHT22;7099;53.922;10.728;2022-07-18T01:32:14;16.10;99.90
14049;DHT22;7099;53.922;10.728;2022-07-18T01:36:40;16.10;99.90
14049;DHT22;7099;53.922;10.728;2022-07-18T01:41:05;16.10;99.90
14049;DHT22;7099;53.922;10.728;2022-07-18T01:45:31;16.00;99.90
14049;DHT22;7099;53.922;10.728;2022-07-18T01:49:56;16.00;99.90
14049;DHT22;7099;53.922;10.728;2022-07-18T01:54:27;15.90;99.90
14049;DHT22;7099;53.922;10.728;2022-07-18T01:58:53;15.90;99.90
14049;DHT22;7099;53.922;10.728;2022-07-18T02:03:19;15.80;99.90
14049;DHT22;7099;53.922;10.728;2022-07-18T02:07:44;15.80;99.90
14049;DHT22;7099;53.922;10.728;2022-07-18T02:12:09;15.70;99.90
14049;DHT22;7099;53.922;10.728;2022-07-18T02:16:35;15.70;99.90
14049;DHT22;7099;53.922;10.728;2022-07-18T02:21:00;15.70;99.90
14049;DHT22;7099;53.922;10.728;2022-07-18T02:25:26;15.60;99.90
14049;DHT22;7099;53.922;10.728;2022-07-18T02:29:51;15.60;99.90
14049;DHT22;7099;53.922;10.728;2022-07-18T02:34:16;15.60;99.90
14049;DHT22;7099;53.922;10.728;2022-07-18T02:38:42;15.60;99.90
14049;DHT22;7099;53.922;10.728;2022-07-18T02:43:07;15.60;99.90
14049;DHT22;7099;53.922;10.728;2022-07-18T02:47:33;15.60;99.90
14049;DHT22;7099;53.922;10.728;2022-07-18T02:52:01;15.60;99.90
14049;DHT22;7099;53.922;10.728;2022-07-18T02:56:29;15.50;99.90
14049;DHT22;7099;53.922;10.728;2022-07-18T03:00:55;15.50;99.90
14049;DHT22;7099;53.922;10.728;2022-07-18T03:05:20;15.50;99.90
14049;DHT22;7099;53.922;10.728;2022-07-18T03:09:45;15.50;99.90
14049;DHT22;7099;53.922;10.728;2022-07-18T03:14:11;15.50;99.90
14049;DHT22;7099;53.922;10.728;2022-07-18T03:18:36;15.50;99.90
14049;DHT22;7099;53.922;10.728;2022-07-18T03:23:06;15.50;99.90
14049;DHT22;7099;53.922;10.728;2022-07-18T03:27:32;15.50;99.90
14049;DHT22;7099;53.922;10.728;2022-07-18T03:31:57;15.40;99.90
14049;DHT22;7099;53.922;10.728;2022-07-18T03:36:23;15.40;99.90
14049;DHT22;7099;53.922;10.728;2022-07-18T03:40:48;15.40;99.90
14049;DHT22;7099;53.922;10.728;2022-07-18T03:45:14;15.40;99.90
14049;DHT22;7099;53.922;10.728;2022-07-18T03:49:39;15.40;99.90
14049;DHT22;7099;53.922;10.728;2022-07-18T03:54:04;15.40;99.90
14049;DHT22;7099;53.922;10.728;2022-07-18T03:58:30;15.40;99.90
14049;DHT22;7099;53.922;10.728;2022-07-18T04:02:55;15.50;99.90
14049;DHT22;7099;53.922;10.728;2022-07-18T04:07:28;15.50;99.90
14049;DHT22;7099;53.922;10.728;2022-07-18T04:11:53;15.50;99.90
14049;DHT22;7099;53.922;10.728;2022-07-18T04:16:19;15.60;99.90
14049;DHT22;7099;53.922;10.728;2022-07-18T04:20:45;15.60;99.90
14049;DHT22;7099;53.922;10.728;2022-07-18T04:25:10;15.60;99.90
14049;DHT22;7099;53.922;10.728;2022-07-18T04:29:36;15.70;99.90
14049;DHT22;7099;53.922;10.728;2022-07-18T04:34:02;15.80;99.90
14049;DHT22;7099;53.922;10.728;2022-07-18T04:38:27;15.80;99.90
14049;DHT22;7099;53.922;10.728;2022-07-18T04:42:55;15.90;99.90
14049;DHT22;7099;53.922;10.728;2022-07-18T04:47:21;15.90;99.90
14049;DHT22;7099;53.922;10.728;2022-07-18T04:51:53;16.00;99.90
14049;DHT22;7099;53.922;10.728;2022-07-18T04:56:18;16.10;99.90
14049;DHT22;7099;53.922;10.728;2022-07-18T05:00:45;16.10;99.90
14049;DHT22;7099;53.922;10.728;2022-07-18T05:05:10;16.20;99.90
14049;DHT22;7099;53.922;10.728;2022-07-18T05:09:36;16.30;99.90
14049;DHT22;7099;53.922;10.728;2022-07-18T05:14:01;16.40;99.90
14049;DHT22;7099;53.922;10.728;2022-07-18T05:18:26;16.50;99.90
14049;DHT22;7099;53.922;10.728;2022-07-18T05:22:53;16.60;99.90
14049;DHT22;7099;53.922;10.728;2022-07-18T05:27:18;16.70;99.90
14049;DHT22;7099;53.922;10.728;2022-07-18T05:31:44;16.80;99.90
14049;DHT22;7099;53.922;10.728;2022-07-18T05:36:09;16.90;99.90
14049;DHT22;7099;53.922;10.728;2022-07-18T05:40:35;17.00;99.90
14049;DHT22;7099;53.922;10.728;2022-07-18T05:45:00;17.10;99.90
14049;DHT22;7099;53.922;10.728;2022-07-18T05:49:26;17.20;99.90
14049;DHT22;7099;53.922;10.728;2022-07-18T05:53:51;17.30;99.90
14049;DHT22;7099;53.922;10.728;2022-07-18T05:58:16;17.40;99.90
14049;DHT22;7099;53.922;10.728;2022-07-18T06:02:41;17.50;99.90
14049;DHT22;7099;53.922;10.728;2022-07-18T06:07:07;17.60;99.90
14049;DHT22;7099;53.922;10.728;2022-07-18T06:11:32;17.70;99.90
14049;DHT22;7099;53.922;10.728;2022-07-18T06:15:58;17.80;99.90
14049;DHT22;7099;53.922;10.728;2022-07-18T06:20:23;17.90;99.90
14049;DHT22;7099;53.922;10.728;2022-07-18T06:24:49;18.00;99.90
14049;DHT22;7099;53.922;10.728;2022-07-18T06:29:15;18.10;99.90
14049;DHT22;7099;53.922;10.728;2022-07-18T06:33:40;18.20;99.90
14049;DHT22;7099;53.922;10.728;2022-07-18T06:38:06;18.40;99.90
14049;DHT22;7099;53.922;10.728;2022-07-18T06:42:32;18.50;99.90
14049;DHT22;7099;53.922;10.728;2022-07-18T06:46:59;18.60;99.90
14049;DHT22;7099;53.922;10.728;2022-07-18T06:51:24;18.70;99.90
14049;DHT22;7099;53.922;10.728;2022-07-18T06:55:50;18.80;99.90
14049;DHT22;7099;53.922;10.728;2022-07-18T07:00:15;18.90;99.90
14049;DHT22;7099;53.922;10.728;2022-07-18T07:04:40;19.00;99.90
14049;DHT22;7099;53.922;10.728;2022-07-18T07:09:06;19.10;99.90
14049;DHT22;7099;53.922;10.728;2022-07-18T07:13:31;19.20;99.90
14049;DHT22;7099;53.922;10.728;2022-07-18T07:17:56;19.40;99.90
14049;DHT22;7099;53.922;10.728;2022-07-18T07:22:22;19.50;99.90
14049;DHT22;7099;53.922;10.728;2022-07-18T07:26:47;19.70;99.90
14049;DHT22;7099;53.922;10.728;2022-07-18T07:31:19;19.80;99.90
14049;DHT22;7099;53.922;10.728;2022-07-18T07:35:45;19.90;99.90
14049;DHT22;7099;53.922;10.728;2022-07-18T07:40:11;20.10;99.90
14049;DHT22;7099;53.922;10.728;2022-07-18T07:44:37;20.30;99.90
14049;DHT22;7099;53.922;10.728;2022-07-18T07:49:02;20.50;99.90
14049;DHT22;7099;53.922;10.728;2022-07-18T07:53:28;20.60;99.90
14049;DHT22;7099;53.922;10.728;2022-07-18T07:57:53;20.90;99.90
14049;DHT22;7099;53.922;10.728;2022-07-18T08:02:18;21.10;99.90
14049;DHT22;7099;53.922;10.728;2022-07-18T08:06:44;21.20;99.90
14049;DHT22;7099;53.922;10.728;2022-07-18T08:11:09;21.40;99.90
14049;DHT22;7099;53.922;10.728;2022-07-18T08:15:34;21.60;99.90
14049;DHT22;7099;53.922;10.728;2022-07-18T08:20:01;21.80;99.90
14049;DHT22;7099;53.922;10.728;2022-07-18T08:24:26;22.10;99.90
14049;DHT22;7099;53.922;10.728;2022-07-18T08:28:52;22.30;99.90
14049;DHT22;7099;53.922;10.728;2022-07-18T08:33:17;22.50;99.90
14049;DHT22;7099;53.922;10.728;2022-07-18T08:37:43;22.70;99.90
14049;DHT22;7099;53.922;10.728;2022-07-18T08:42:08;22.90;99.90
14049;DHT22;7099;53.922;10.728;2022-07-18T08:46:35;23.10;99.90
14049;DHT22;7099;53.922;10.728;2022-07-18T08:51:01;23.30;99.90
14049;DHT22;7099;53.922;10.728;2022-07-18T08:55:26;23.50;99.90
14049;DHT22;7099;53.922;10.728;2022-07-18T08:59:52;23.60;99.90
14049;DHT22;7099;53.922;10.728;2022-07-18T09:04:41;23.80;99.90
14049;DHT22;7099;53.922;10.728;2022-07-18T09:09:07;24.10;99.90
14049;DHT22;7099;53.922;10.728;2022-07-18T09:13:40;24.20;99.90
14049;DHT22;7099;53.922;10.728;2022-07-18T09:18:07;24.40;99.90
14049;DHT22;7099;53.922;10.728;2022-07-18T09:22:53;24.60;99.90
14049;DHT22;7099;53.922;10.728;2022-07-18T09:27:30;24.70;99.90
14049;DHT22;7099;53.922;10.728;2022-07-18T09:32:09;24.90;99.90
14049;DHT22;7099;53.922;10.728;2022-07-18T09:36:54;25.10;99.90
14049;DHT22;7099;53.922;10.728;2022-07-18T09:41:28;25.40;99.90
14049;DHT22;7099;53.922;10.728;2022-07-18T09:46:04;25.60;99.90
14049;DHT22;7099;53.922;10.728;2022-07-18T09:50:38;25.70;99.90
14049;DHT22;7099;53.922;10.728;2022-07-18T09:55:08;25.90;99.90
14049;DHT22;7099;53.922;10.728;2022-07-18T09:59:35;26.00;99.90
14049;DHT22;7099;53.922;10.728;2022-07-18T10:04:01;26.20;99.90
14049;DHT22;7099;53.922;10.728;2022-07-18T10:08:29;26.40;99.90
14049;DHT22;7099;53.922;10.728;2022-07-18T10:12:58;26.70;99.90
14049;DHT22;7099;53.922;10.728;2022-07-18T10:17:25;26.70;99.90
14049;DHT22;7099;53.922;10.728;2022-07-18T10:21:51;26.90;99.90
14049;DHT22;7099;53.922;10.728;2022-07-18T10:26:22;27.00;99.90
14049;DHT22;7099;53.922;10.728;2022-07-18T10:30:49;27.20;99.90
14049;DHT22;7099;53.922;10.728;2022-07-18T10:35:15;27.30;99.90
14049;DHT22;7099;53.922;10.728;2022-07-18T10:39:42;27.50;99.90
14049;DHT22;7099;53.922;10.728;2022-07-18T10:48:52;27.90;99.90
14049;DHT22;7099;53.922;10.728;2022-07-18T10:53:18;28.10;99.90
14049;DHT22;7099;53.922;10.728;2022-07-18T11:02:36;28.30;99.90
14049;DHT22;7099;53.922;10.728;2022-07-18T11:07:15;28.30;99.90
14049;DHT22;7099;53.922;10.728;2022-07-18T11:17:04;28.80;99.90
14049;DHT22;7099;53.922;10.728;2022-07-18T11:21:32;28.80;99.90
14049;DHT22;7099;53.922;10.728;2022-07-18T11:26:04;28.90;99.90
14049;DHT22;7099;53.922;10.728;2022-07-18T11:30:29;29.00;99.90
14049;DHT22;7099;53.922;10.728;2022-07-18T11:34:54;29.10;99.90
14049;DHT22;7099;53.922;10.728;2022-07-18T11:39:33;29.20;99.90
14049;DHT22;7099;53.922;10.728;2022-07-18T11:44:00;29.30;99.90
14049;DHT22;7099;53.922;10.728;2022-07-18T11:48:25;29.30;99.90
14049;DHT22;7099;53.922;10.728;2022-07-18T11:52:55;29.40;99.90
14049;DHT22;7099;53.922;10.728;2022-07-18T11:57:29;29.60;99.90
14049;DHT22;7099;53.922;10.728;2022-07-18T12:01:55;29.70;98.90
14049;DHT22;7099;53.922;10.728;2022-07-18T12:06:22;29.70;99.90
14049;DHT22;7099;53.922;10.728;2022-07-18T12:11:09;29.70;99.00
14049;DHT22;7099;53.922;10.728;2022-07-18T12:15:41;29.70;97.90
14049;DHT22;7099;53.922;10.728;2022-07-18T12:20:20;29.60;99.60
14049;DHT22;7099;53.922;10.728;2022-07-18T12:29:14;29.70;99.20
14049;DHT22;7099;53.922;10.728;2022-07-18T12:34:06;29.70;99.50
14049;DHT22;7099;53.922;10.728;2022-07-18T12:38:33;29.60;97.60
14049;DHT22;7099;53.922;10.728;2022-07-18T12:43:07;29.60;99.20
14049;DHT22;7099;53.922;10.728;2022-07-18T12:47:34;29.50;97.10
14049;DHT22;7099;53.922;10.728;2022-07-18T12:52:00;29.40;98.10
14049;DHT22;7099;53.922;10.728;2022-07-18T12:56:25;29.40;98.30
14049;DHT22;7099;53.922;10.728;2022-07-18T13:00:51;29.40;97.20
14049;DHT22;7099;53.922;10.728;2022-07-18T13:05:16;29.30;96.00
14049;DHT22;7099;53.922;10.728;2022-07-18T13:09:42;29.20;96.50
14049;DHT22;7099;53.922;10.728;2022-07-18T13:14:07;29.10;96.00
14049;DHT22;7099;53.922;10.728;2022-07-18T13:18:33;29.00;96.70
14049;DHT22;7099;53.922;10.728;2022-07-18T13:22:58;28.90;97.30
14049;DHT22;7099;53.922;10.728;2022-07-18T13:27:26;28.90;97.30
14049;DHT22;7099;53.922;10.728;2022-07-18T13:31:51;28.90;97.60
14049;DHT22;7099;53.922;10.728;2022-07-18T13:36:18;28.80;96.70
14049;DHT22;7099;53.922;10.728;2022-07-18T13:40:44;28.70;96.90
14049;DHT22;7099;53.922;10.728;2022-07-18T13:45:09;28.70;95.60
14049;DHT22;7099;53.922;10.728;2022-07-18T13:49:35;28.70;96.10
14049;DHT22;7099;53.922;10.728;2022-07-18T13:54:00;28.70;95.80
14049;DHT22;7099;53.922;10.728;2022-07-18T13:58:26;28.80;96.70
14049;DHT22;7099;53.922;10.728;2022-07-18T14:02:51;28.80;95.50
14049;DHT22;7099;53.922;10.728;2022-07-18T14:07:16;28.90;96.10
14049;DHT22;7099;53.922;10.728;2022-07-18T14:11:43;29.10;95.40
14049;DHT22;7099;53.922;10.728;2022-07-18T14:16:08;29.30;97.00
14049;DHT22;7099;53.922;10.728;2022-07-18T14:20:34;29.60;96.00
14049;DHT22;7099;53.922;10.728;2022-07-18T14:24:59;29.70;96.60
14049;DHT22;7099;53.922;10.728;2022-07-18T14:29:25;29.90;95.80
14049;DHT22;7099;53.922;10.728;2022-07-18T14:33:50;30.10;96.10
14049;DHT22;7099;53.922;10.728;2022-07-18T14:38:15;30.10;96.10
14049;DHT22;7099;53.922;10.728;2022-07-18T14:42:41;30.40;95.40
14049;DHT22;7099;53.922;10.728;2022-07-18T14:47:06;30.70;95.50
14049;DHT22;7099;53.922;10.728;2022-07-18T14:51:31;31.10;95.20
14049;DHT22;7099;53.922;10.728;2022-07-18T14:55:57;31.40;92.90
14049;DHT22;7099;53.922;10.728;2022-07-18T15:00:23;31.30;92.00
14049;DHT22;7099;53.922;10.728;2022-07-18T15:04:48;31.20;93.30
14049;DHT22;7099;53.922;10.728;2022-07-18T15:09:14;31.20;92.50
14049;DHT22;7099;53.922;10.728;2022-07-18T15:13:39;31.20;93.40
14049;DHT22;7099;53.922;10.728;2022-07-18T15:18:05;31.30;92.40
14049;DHT22;7099;53.922;10.728;2022-07-18T15:22:30;31.30;91.40
14049;DHT22;7099;53.922;10.728;2022-07-18T15:26:55;31.20;91.20
14049;DHT22;7099;53.922;10.728;2022-07-18T15:31:20;31.00;90.30
14049;DHT22;7099;53.922;10.728;2022-07-18T15:35:46;30.90;90.40
14049;DHT22;7099;53.922;10.728;2022-07-18T15:40:11;30.90;89.90
14049;DHT22;7099;53.922;10.728;2022-07-18T15:44:37;30.90;91.00
14049;DHT22;7099;53.922;10.728;2022-07-18T15:49:03;31.00;92.20
14049;DHT22;7099;53.922;10.728;2022-07-18T15:53:29;31.10;91.30
14049;DHT22;7099;53.922;10.728;2022-07-18T15:57:54;31.00;90.50
14049;DHT22;7099;53.922;10.728;2022-07-18T16:02:19;31.30;90.20
14049;DHT22;7099;53.922;10.728;2022-07-18T16:06:45;31.70;89.50
14049;DHT22;7099;53.922;10.728;2022-07-18T16:11:10;32.00;90.50
14049;DHT22;7099;53.922;10.728;2022-07-18T16:15:36;32.20;87.80
14049;DHT22;7099;53.922;10.728;2022-07-18T16:20:02;32.30;87.90
14049;DHT22;7099;53.922;10.728;2022-07-18T16:24:27;32.50;88.80
14049;DHT22;7099;53.922;10.728;2022-07-18T16:28:53;32.80;87.60
14049;DHT22;7099;53.922;10.728;2022-07-18T16:33:20;32.90;88.80
14049;DHT22;7099;53.922;10.728;2022-07-18T16:37:46;33.10;86.00
14049;DHT22;7099;53.922;10.728;2022-07-18T16:42:13;32.90;82.70
14049;DHT22;7099;53.922;10.728;2022-07-18T16:46:38;32.80;80.60
14049;DHT22;7099;53.922;10.728;2022-07-18T16:51:08;32.70;80.30
14049;DHT22;7099;53.922;10.728;2022-07-18T16:55:39;32.80;79.20
14049;DHT22;7099;53.922;10.728;2022-07-18T17:00:06;32.60;79.80
14049;DHT22;7099;53.922;10.728;2022-07-18T17:04:36;32.60;81.70
14049;DHT22;7099;53.922;10.728;2022-07-18T17:09:01;32.60;82.50
14049;DHT22;7099;53.922;10.728;2022-07-18T17:13:27;32.60;80.50
14049;DHT22;7099;53.922;10.728;2022-07-18T17:17:52;32.40;79.40
14049;DHT22;7099;53.922;10.728;2022-07-18T17:22:28;32.20;80.80
14049;DHT22;7099;53.922;10.728;2022-07-18T17:26:54;31.90;79.70
14049;DHT22;7099;53.922;10.728;2022-07-18T17:31:20;31.70;79.90
14049;DHT22;7099;53.922;10.728;2022-07-18T17:35:47;31.60;80.70
14049;DHT22;7099;53.922;10.728;2022-07-18T17:40:14;31.60;81.90
14049;DHT22;7099;53.922;10.728;2022-07-18T17:44:40;31.70;80.40
14049;DHT22;7099;53.922;10.728;2022-07-18T17:49:06;31.60;81.20
14049;DHT22;7099;53.922;10.728;2022-07-18T17:53:33;31.60;80.90
14049;DHT22;7099;53.922;10.728;2022-07-18T17:57:59;31.50;82.50
14049;DHT22;7099;53.922;10.728;2022-07-18T18:02:24;31.30;83.80
14049;DHT22;7099;53.922;10.728;2022-07-18T18:06:50;31.30;84.80
14049;DHT22;7099;53.922;10.728;2022-07-18T18:11:15;31.20;83.80
14049;DHT22;7099;53.922;10.728;2022-07-18T18:15:46;31.10;84.20
14049;DHT22;7099;53.922;10.728;2022-07-18T18:20:12;31.10;84.90
14049;DHT22;7099;53.922;10.728;2022-07-18T18:24:37;30.90;86.90
14049;DHT22;7099;53.922;10.728;2022-07-18T18:29:02;30.80;86.30
14049;DHT22;7099;53.922;10.728;2022-07-18T18:33:28;30.60;90.10
14049;DHT22;7099;53.922;10.728;2022-07-18T18:37:53;30.50;91.30
14049;DHT22;7099;53.922;10.728;2022-07-18T18:42:18;30.40;91.60
14049;DHT22;7099;53.922;10.728;2022-07-18T18:46:44;30.20;91.90
14049;DHT22;7099;53.922;10.728;2022-07-18T18:51:09;30.00;92.60
14049;DHT22;7099;53.922;10.728;2022-07-18T18:55:34;29.70;93.20
14049;DHT22;7099;53.922;10.728;2022-07-18T19:00:00;29.50;93.40
14049;DHT22;7099;53.922;10.728;2022-07-18T19:04:26;29.30;93.70
14049;DHT22;7099;53.922;10.728;2022-07-18T19:08:54;29.10;94.10
14049;DHT22;7099;53.922;10.728;2022-07-18T19:13:20;28.80;94.20
14049;DHT22;7099;53.922;10.728;2022-07-18T19:17:48;28.60;94.60
14049;DHT22;7099;53.922;10.728;2022-07-18T19:22:13;28.40;94.70
14049;DHT22;7099;53.922;10.728;2022-07-18T19:26:39;28.20;95.10
14049;DHT22;7099;53.922;10.728;2022-07-18T19:31:05;27.90;95.50
14049;DHT22;7099;53.922;10.728;2022-07-18T19:35:31;27.70;95.90
14049;DHT22;7099;53.922;10.728;2022-07-18T19:39:56;27.50;96.20
14049;DHT22;7099;53.922;10.728;2022-07-18T19:44:21;27.30;96.60
14049;DHT22;7099;53.922;10.728;2022-07-18T19:48:47;27.00;96.90
14049;DHT22;7099;53.922;10.728;2022-07-18T19:53:14;26.70;97.10
14049;DHT22;7099;53.922;10.728;2022-07-18T19:57:39;26.60;97.50
14049;DHT22;7099;53.922;10.728;2022-07-18T20:02:04;26.40;97.90
14049;DHT22;7099;53.922;10.728;2022-07-18T20:06:30;26.10;98.20
14049;DHT22;7099;53.922;10.728;2022-07-18T20:10:57;25.90;98.10
14049;DHT22;7099;53.922;10.728;2022-07-18T20:15:24;25.80;98.30
14049;DHT22;7099;53.922;10.728;2022-07-18T20:19:50;25.50;98.70
14049;DHT22;7099;53.922;10.728;2022-07-18T20:24:15;25.30;99.30
14049;DHT22;7099;53.922;10.728;2022-07-18T20:28:40;25.00;99.70
14049;DHT22;7099;53.922;10.728;2022-07-18T20:33:06;24.80;99.90
14049;DHT22;7099;53.922;10.728;2022-07-18T20:37:31;24.60;99.90
14049;DHT22;7099;53.922;10.728;2022-07-18T20:41:56;24.40;99.90
14049;DHT22;7099;53.922;10.728;2022-07-18T20:46:24;24.20;99.90
14049;DHT22;7099;53.922;10.728;2022-07-18T20:50:49;24.00;99.90
14049;DHT22;7099;53.922;10.728;2022-07-18T20:55:15;23.80;99.90
14049;DHT22;7099;53.922;10.728;2022-07-18T20:59:41;23.70;99.90
14049;DHT22;7099;53.922;10.728;2022-07-18T21:04:07;23.50;99.90
14049;DHT22;7099;53.922;10.728;2022-07-18T21:08:32;23.30;99.90
14049;DHT22;7099;53.922;10.728;2022-07-18T21:12:58;23.10;99.90
14049;DHT22;7099;53.922;10.728;2022-07-18T21:17:29;22.90;99.90
14049;DHT22;7099;53.922;10.728;2022-07-18T21:21:54;22.70;99.90
14049;DHT22;7099;53.922;10.728;2022-07-18T21:26:20;22.60;99.90
14049;DHT22;7099;53.922;10.728;2022-07-18T21:30:45;22.40;99.90
14049;DHT22;7099;53.922;10.728;2022-07-18T21:35:11;22.20;99.90
14049;DHT22;7099;53.922;10.728;2022-07-18T21:39:41;22.10;99.90
14049;DHT22;7099;53.922;10.728;2022-07-18T21:44:07;21.90;99.90
14049;DHT22;7099;53.922;10.728;2022-07-18T21:48:32;21.70;99.90
14049;DHT22;7099;53.922;10.728;2022-07-18T21:52:57;21.50;99.90
14049;DHT22;7099;53.922;10.728;2022-07-18T21:57:23;21.40;99.90
14049;DHT22;7099;53.922;10.728;2022-07-18T22:01:49;21.30;99.90
14049;DHT22;7099;53.922;10.728;2022-07-18T22:06:15;21.20;99.90
14049;DHT22;7099;53.922;10.728;2022-07-18T22:10:41;21.00;99.90
14049;DHT22;7099;53.922;10.728;2022-07-18T22:15:07;20.90;99.90
14049;DHT22;7099;53.922;10.728;2022-07-18T22:19:34;20.70;99.90
14049;DHT22;7099;53.922;10.728;2022-07-18T22:24:00;20.60;99.90
14049;DHT22;7099;53.922;10.728;2022-07-18T22:28:25;20.50;99.90
14049;DHT22;7099;53.922;10.728;2022-07-18T22:32:51;20.40;99.90
14049;DHT22;7099;53.922;10.728;2022-07-18T22:37:16;20.30;99.90
14049;DHT22;7099;53.922;10.728;2022-07-18T22:41:41;20.20;99.90
14049;DHT22;7099;53.922;10.728;2022-07-18T22:46:07;20.00;99.90
14049;DHT22;7099;53.922;10.728;2022-07-18T22:50:32;19.90;99.90
14049;DHT22;7099;53.922;10.728;2022-07-18T22:54:58;19.80;99.90
14049;DHT22;7099;53.922;10.728;2022-07-18T22:59:23;19.70;99.90
14049;DHT22;7099;53.922;10.728;2022-07-18T23:03:48;19.50;99.90
14049;DHT22;7099;53.922;10.728;2022-07-18T23:08:14;19.50;99.90
14049;DHT22;7099;53.922;10.728;2022-07-18T23:12:39;19.30;99.90
14049;DHT22;7099;53.922;10.728;2022-07-18T23:17:04;19.20;99.90
14049;DHT22;7099;53.922;10.728;2022-07-18T23:21:30;19.10;99.90
14049;DHT22;7099;53.922;10.728;2022-07-18T23:25:56;19.10;99.90
14049;DHT22;7099;53.922;10.728;2022-07-18T23:30:22;18.90;99.90
14049;DHT22;7099;53.922;10.728;2022-07-18T23:34:47;18.80;99.90
14049;DHT22;7099;53.922;10.728;2022-07-18T23:39:12;18.80;99.90
14049;DHT22;7099;53.922;10.728;2022-07-18T23:43:38;18.70;99.90
14049;DHT22;7099;53.922;10.728;2022-07-18T23:48:03;18.60;99.90
14049;DHT22;7099;53.922;10.728;2022-07-18T23:52:29;18.50;99.90
14049;DHT22;7099;53.922;10.728;2022-07-18T23:56:54;18.40;99.90
